AirNav   ATP
 
 900 users online  

O88 Rio Vista Municipal Airport
Rio Vista, California, USA

GOING TO RIO VISTA?


FAA INFORMATION EFFECTIVE 08 NOVEMBER 2018

Location

FAA Identifier: O88
Lat/Long: 38-11-36.2000N / 121-42-13.1000W
38-11.603333N / 121-42.218333W
38.1933889 / -121.7036389
(estimated)
Elevation: 22.6 ft. / 7 m (estimated)
Variation: 14E (2010)
From city: 3 miles NW of RIO VISTA, CA
Time zone: UTC -8 (UTC -7 during Daylight Saving Time)
Zip code: 94571

Airport Operations

Airport use: Open to the public
Activation date: 05/1994
Control tower: no
ARTCC: OAKLAND CENTER
FSS: RANCHO MURIETA FLIGHT SERVICE STATION
NOTAMs facility: RIU (NOTAM-D service available)
Attendance: UNATNDD
Wind indicator: lighted
Segmented circle: yes
Lights: ACTVT MIRL RY 07/25 & RY 15/33, PAPI RYS 07 & 25 AND RYS 15 & 33, REIL RY 25 - CTAF.
Beacon: white-green (lighted land airport)
Operates sunset to sunrise.

Airport Communications

CTAF/UNICOM: 122.725
WX AWOS-AV: 127.075 (707-374-5396)
TRAVIS APPROACH: 119.9
TRAVIS DEPARTURE: 119.9
WX ASOS at VCB (16 nm NW): 134.75 (707-448-1594)

Nearby radio navigation aids

VOR radial/distance  VOR name  Freq  Var
SACr188/16.6SACRAMENTO VORTAC115.2017E
CCRr044/18.4CONCORD VOR/DME117.0017E
SGDr071/31.6SCAGGS ISLAND VORTAC112.1017E
MCCr189/31.7MC CLELLAN VOR/DME109.2017E
LINr265/33.8LINDEN VOR/DME114.8017E
OAKr024/37.3OAKLAND VOR/DME116.8017E

 
NDB name  Hdg/Dist  Freq  Var  ID
TRACY323/32.520315ETCY - -.-. -.--

Airport Services

Fuel available: 100LL
FAST PAY FUEL SYSTEM AVBL 24 HRS.
Parking: tiedowns

Runway Information

Runway 7/25

Dimensions: 4199 x 75 ft. / 1280 x 23 m
Surface: asphalt, in good condition
Weight bearing capacity: 
Single wheel: 30.0
Runway edge lights: medium intensity
RUNWAY 7  RUNWAY 25
Latitude: 38-11.606865N38-11.658582N
Longitude: 121-42.573408W121-41.699158W
Elevation: 21.3 ft.21.6 ft.
Traffic pattern: leftright
Runway heading: 072 magnetic, 086 true252 magnetic, 266 true
Markings: nonprecision, in good conditionnonprecision, in good condition
Visual slope indicator: 2-light PAPI on left (4.00 degrees glide path)2-light PAPI on left (4.00 degrees glide path)
Runway end identifier lights: yes
Touchdown point: yes, no lightsyes, no lights

Runway 15/33

Dimensions: 2199 x 60 ft. / 670 x 18 m
Surface: asphalt, in good condition
Weight bearing capacity: 
Single wheel: 12.5
Runway edge lights: medium intensity
RUNWAY 15  RUNWAY 33
Latitude: 38-11.716400N38-11.375910N
Longitude: 121-42.452610W121-42.295648W
Elevation: 21.6 ft.21.5 ft.
Traffic pattern: leftright
Runway heading: 146 magnetic, 160 true326 magnetic, 340 true
Markings: nonprecision, in good conditionnonprecision, in good condition
Visual slope indicator: 2-light PAPI on left (4.00 degrees glide path)2-light PAPI on left (4.00 degrees glide path)
Touchdown point: yes, no lightsyes, no lights
Obstructions: 25 ft. pole, 1365 ft. from runway, 46:1 slope to clearnone

Helipad H1

Dimensions: 180 x 180 ft. / 55 x 55 m
Surface: concrete
Runway edge lights: PERIMETER LGTS.
Traffic pattern: leftleft

Airport Ownership and Management from official FAA records

Ownership: Publicly-owned
Owner: CITY OF RIO VISTA
ONE MAIN STREET
RIO VISTA, CA 94571
Phone 707-374-6451
Manager: DAVID MELILLI
ONE MAIN STREET, P.O. BOX 94571
RIO VISTA, CA 94571
Phone 707-374-6451
DIR PUBLIC WORKS AND PLANNING

Airport Operational Statistics

Aircraft based on the field: 37
Single engine airplanes: 33
Multi engine airplanes: 1
Jet airplanes: 1
Helicopters: 2
    
Aircraft operations: avg 96/day *
50% transient general aviation
50% local general aviation
* for 12-month period ending 31 December 2017

Additional Remarks

RY 25 CALM WIND RY.
NOISE SENSITIVE AREA N OF RY 33. DO NOT OVERFLY RANCH & CORRALS OFF RY 33. ALL RYS CLIMB TO 700 FT BEFORE TURNS.
HELIPAD: NO AUTOROTATIONS HOVERING AUTO'S OR RUNNING LDGS TO PAVEMENT.
HEL TFC TO HELIPAD REMAIN SOUTH OF ARPT 500 FT.
WHEN WIND FAVORS RWY 15/33 HELS MAY USE APRON AREA WEST OF RWY 15/33; REMAIN WEST OF ARPT 500 FT.

Instrument Procedures

NOTE: All procedures below are presented as PDF files. If you need a reader for these files, you should download the free Adobe Reader.

NOT FOR NAVIGATION. Please procure official charts for flight.
FAA instrument procedures published for use from 8 November 2018 at 0901Z to 6 December 2018 at 0900Z.

 
IAPs - Instrument Approach Procedures
RNAV (GPS) RWY 25   download (206KB)
VOR/DME-A   download (179KB)
NOTE: Special Take-Off Minimums/Departure Procedures apply   download (128KB)

Other nearby airports with instrument procedures:

KSUU - Travis Air Force Base (11 nm W)
KVCB - Nut Tree Airport (16 nm NW)
1O3 - Lodi Airport (20 nm E)
KEDU - University Airport (21 nm N)
KCCR - Buchanan Field Airport (21 nm SW)
 
Loc | Ops | Rwys | IFR | FBO | Links
Com | Nav | Svcs | Stats | Notes

Sonoma Jet Center
 
Area around O88 (Rio Vista Municipal Airport)
 
Road maps at: MapQuest Bing Google
 
Aerial photo
WARNING: Photo may not be current or correct
Aerial photo of O88 (Rio Vista Municipal Airport)
Photo by James M. Malone III, MD
Photo taken 03-Apr-2011
looking west.

Do you have a better or more recent aerial photo of Rio Vista Municipal Airport that you would like to share? If so, please send us your photo.

 
Sectional chart

 
Airport distance calculator
Flying to Rio Vista Municipal Airport? Find the distance to fly.

From to O88

Sunrise and sunset
Times for 18-Nov-2018
 Local
(UTC-8)
 Zulu
(UTC)
Morning civil twilight06:2414:24
Sunrise06:5214:52
Sunset16:5200:52
Evening civil twilight17:2001:20

Current date and time
Zulu (UTC)  18-Nov-2018 21:58:55
Local (UTC-8)  18-Nov-2018 13:58:55
 
METAR
KSUU 
11nm NW 
182058Z AUTO 02006KT 2SM HZ CLR 17/00 A3005 RMK AO2 SLP183 T01700002 57024 $
KVCB 
16nm NW 
182153Z AUTO 02005KT 2SM HZ OVC015 20/M01 A3006 RMK AO2 SLP178 T02001011 $
KCCR 
20nm SW 
182153Z 36004KT 1 1/4SM HZ FU OVC017 18/02 A3005 RMK AO2 SLP160 T01830017
KEDU 
21nm N 
182135Z AUTO 33004KT 2SM CLR 17/00 A3005 RMK AO1
KSAC 
21nm NE 
182153Z 33005KT 2 1/2SM FU CLR 18/01 A3004 RMK AO2 SLP172 T01830011
TAF
KSUU 
11nm NW 
182001Z 1820/2001 03006KT 3200 FU SKC QNH3003INS BECMG 1911/1912 VRB06KT 4800 FU FEW250 QNH3004INS BECMG 1914/1915 04009KT 6000 FU SCT200 QNH3000INS TX19/1821Z TNM01/1915Z
NOTAMs
Click for the latest NOTAMs
NOTAMs are issued by the DoD/FAA and will open in a separate window not controlled by AirNav.

 

 
 

FBO, Fuel Providers, and Aircraft Ground Support

  
 Business Name 
 
 Contact 
 
 Services / Description 
 
Fuel Prices
 
Comments
  
Rio Vista Municipal Airport 707-374-2716
no information available

If you are affiliated with Rio Vista Municipal Airport and would like to show here your services, contact info, web link, logo, and more, click here
100LL
SS $4.79 
 Updated 20-Sep-2018
 
   1 read write
SS=Self service
Update Fuel Prices
 

Would you like to see your business listed on this page?

 If your business provides an interesting product or service to pilots, flight crews, aircraft, or users of the Rio Vista Municipal Airport, you should consider listing it here.  To start the listing process, click on the button below
 
Add a business
 

Other Pages about Rio Vista Municipal Airport

ci.rio-vista.ca.us/airport
 
Update a link
 
Copyright © AirNav, LLC. All rights reserved. Privacy Policy  Contact